createdAt,value
2022-12-17T00:01:22.213Z,-0.01
2022-12-17T00:04:08.877Z,0.02
2022-12-17T00:06:56.429Z,0.03
2022-12-17T00:09:48.585Z,0.01
2022-12-17T00:12:36.360Z,-0.01
2022-12-17T00:15:23.165Z,0.01
2022-12-17T00:18:09.672Z,0.02
2022-12-17T00:20:56.038Z,0.03
2022-12-17T00:23:42.942Z,-0.01
2022-12-17T00:26:29.528Z,-0.01
2022-12-17T00:29:26.523Z,-0.05
2022-12-17T00:32:13.116Z,-0.06
2022-12-17T00:34:59.191Z,-0.09
2022-12-17T00:37:45.398Z,-0.11
2022-12-17T00:40:31.906Z,-0.17
2022-12-17T00:43:29.692Z,-0.18
2022-12-17T00:46:16.344Z,-0.20
2022-12-17T00:49:02.562Z,-0.22
2022-12-17T00:51:49.045Z,-0.26
2022-12-17T00:54:35.424Z,-0.28
2022-12-17T00:57:21.666Z,-0.28
2022-12-17T01:00:08.026Z,-0.34
2022-12-17T01:02:54.566Z,-0.41
2022-12-17T01:05:42.593Z,-0.45
2022-12-17T01:08:30.218Z,-0.51
2022-12-17T01:11:24.915Z,-0.59
2022-12-17T01:14:12.114Z,-0.65
2022-12-17T01:16:58.536Z,-0.68
2022-12-17T01:19:44.794Z,-0.74
2022-12-17T01:22:31.300Z,-0.80
2022-12-17T01:25:17.584Z,-0.84
2022-12-17T01:28:08.210Z,-0.93
2022-12-17T01:30:56.913Z,-1.00
2022-12-17T01:33:43.504Z,-1.06
2022-12-17T01:36:29.883Z,-1.08
2022-12-17T01:39:16.110Z,-1.07
2022-12-17T01:42:02.567Z,-1.06
2022-12-17T01:45:06.699Z,-1.09
2022-12-17T01:48:07.151Z,-1.09
2022-12-17T01:50:59.288Z,-1.04
2022-12-17T01:53:50.817Z,-1.02
2022-12-17T01:56:37.683Z,-1.10
2022-12-17T01:59:25.398Z,-1.14
2022-12-17T02:02:13.558Z,-1.22
2022-12-17T02:05:00.113Z,-1.27
2022-12-17T02:08:08.637Z,-1.26
2022-12-17T02:11:18.932Z,-1.45
2022-12-17T02:14:31.963Z,-1.46
2022-12-17T02:17:23.307Z,-1.46
2022-12-17T02:20:40.011Z,-1.41
2022-12-17T02:24:01.794Z,-1.43
2022-12-17T02:26:58.283Z,-1.49
2022-12-17T02:29:47.486Z,-1.59
2022-12-17T02:32:34.770Z,-1.67
2022-12-17T02:35:23.895Z,-1.69
2022-12-17T02:38:10.323Z,-1.71
2022-12-17T02:41:14.617Z,-1.66
2022-12-17T02:44:01.043Z,-1.59
2022-12-17T02:46:47.481Z,-1.73
2022-12-17T02:49:33.924Z,-1.82
2022-12-17T02:52:20.444Z,-1.90
2022-12-17T02:55:06.617Z,-2.00
2022-12-17T02:57:54.072Z,-1.97
2022-12-17T03:00:40.436Z,-1.87
2022-12-17T03:03:27.012Z,-1.95
2022-12-17T03:06:13.266Z,-2.00
2022-12-17T03:08:59.531Z,-2.14
2022-12-17T03:11:48.890Z,-2.17
2022-12-17T03:14:35.690Z,-2.25
2022-12-17T03:17:22.164Z,-2.25
2022-12-17T03:20:08.615Z,-2.22
2022-12-17T03:22:54.993Z,-2.16
2022-12-17T03:25:41.592Z,-2.16
2022-12-17T03:28:31.177Z,-2.16
2022-12-17T03:31:18.941Z,-2.13
2022-12-17T03:34:06.274Z,-2.06
2022-12-17T03:36:52.873Z,-2.04
2022-12-17T03:39:38.742Z,-2.08
2022-12-17T03:42:25.039Z,-2.18
2022-12-17T03:45:11.530Z,-2.30
2022-12-17T03:47:57.815Z,-2.40
2022-12-17T03:50:44.334Z,-2.46
2022-12-17T03:53:30.655Z,-2.55
2022-12-17T03:56:16.618Z,-2.57
2022-12-17T03:59:03.075Z,-2.56
2022-12-17T04:01:49.381Z,-2.54
2022-12-17T04:04:35.735Z,-2.58
2022-12-17T04:07:22.318Z,-2.55
2022-12-17T04:10:08.868Z,-2.49
2022-12-17T04:12:54.861Z,-2.55
2022-12-17T04:15:41.525Z,-2.59
2022-12-17T04:18:27.879Z,-2.54
2022-12-17T04:21:14.271Z,-2.47
2022-12-17T04:24:00.624Z,-2.51
2022-12-17T04:26:46.983Z,-2.47
2022-12-17T04:29:33.121Z,-2.50
2022-12-17T04:32:19.433Z,-2.55
2022-12-17T04:35:05.576Z,-2.60
2022-12-17T04:37:51.902Z,-2.68
2022-12-17T04:40:38.041Z,-2.76
2022-12-17T04:43:29.364Z,-2.75
2022-12-17T04:46:15.772Z,-2.73
2022-12-17T04:49:02.387Z,-2.72
2022-12-17T04:51:48.908Z,-2.81
2022-12-17T04:54:35.402Z,-2.79
2022-12-17T04:57:21.435Z,-2.78
2022-12-17T05:00:07.922Z,-2.75
2022-12-17T05:02:54.550Z,-2.73
2022-12-17T05:05:41.137Z,-2.65
2022-12-17T05:08:27.488Z,-2.62
2022-12-17T05:11:13.937Z,-2.57
2022-12-17T05:13:59.955Z,-2.56
2022-12-17T05:16:46.499Z,-2.54
2022-12-17T05:19:33.098Z,-2.62
2022-12-17T05:22:19.262Z,-2.71
2022-12-17T05:25:05.457Z,-2.82
2022-12-17T05:27:51.635Z,-2.82
2022-12-17T05:30:37.884Z,-2.86
2022-12-17T05:33:24.577Z,-2.90
2022-12-17T05:36:11.101Z,-2.87
2022-12-17T05:38:57.536Z,-2.86
2022-12-17T05:41:43.688Z,-2.82
2022-12-17T05:44:30.278Z,-2.84
2022-12-17T05:47:16.104Z,-2.95
2022-12-17T05:50:02.608Z,-2.91
2022-12-17T05:52:48.815Z,-2.86
2022-12-17T05:55:35.704Z,-2.83
2022-12-17T05:58:26.803Z,-2.86
2022-12-17T06:01:17.600Z,-2.80
2022-12-17T06:04:03.796Z,-2.85
2022-12-17T06:06:50.673Z,-2.81
2022-12-17T06:09:37.044Z,-2.71
2022-12-17T06:12:23.184Z,-2.69
2022-12-17T06:15:09.178Z,-2.70
2022-12-17T06:18:03.124Z,-2.70
2022-12-17T06:20:49.521Z,-2.65
2022-12-17T06:23:36.390Z,-2.59
2022-12-17T06:26:22.945Z,-2.56
2022-12-17T06:29:09.232Z,-2.56
2022-12-17T06:31:55.048Z,-2.55
2022-12-17T06:34:41.417Z,-2.65
2022-12-17T06:37:27.631Z,-2.75
2022-12-17T06:40:13.695Z,-2.79
2022-12-17T06:42:59.820Z,-2.83
2022-12-17T06:45:45.639Z,-2.85
2022-12-17T06:48:31.907Z,-2.95
2022-12-17T06:51:18.380Z,-3.01
2022-12-17T06:54:04.730Z,-3.12
2022-12-17T06:56:51.370Z,-3.12
2022-12-17T06:59:37.225Z,-3.12
2022-12-17T07:02:23.604Z,-3.02
2022-12-17T07:05:09.982Z,-3.02
2022-12-17T07:07:56.545Z,-3.04
2022-12-17T07:10:43.505Z,-3.10
2022-12-17T07:13:29.838Z,-3.20
2022-12-17T07:16:16.465Z,-3.27
2022-12-17T07:19:03.025Z,-3.30
2022-12-17T07:21:49.277Z,-3.34
2022-12-17T07:24:55.017Z,-3.36
2022-12-17T07:27:41.377Z,-3.36
2022-12-17T07:30:28.233Z,-3.42
2022-12-17T07:33:21.794Z,-3.52
2022-12-17T07:36:07.883Z,-3.50
2022-12-17T07:38:54.345Z,-3.44
2022-12-17T07:41:40.551Z,-3.38
2022-12-17T07:44:27.072Z,-3.42
2022-12-17T07:47:13.692Z,-3.36
2022-12-17T07:50:00.175Z,-3.41
2022-12-17T07:52:46.083Z,-3.44
2022-12-17T07:55:32.339Z,-3.52
2022-12-17T07:58:24.464Z,-3.54
2022-12-17T08:01:10.893Z,-3.61
2022-12-17T08:03:57.162Z,-3.68
2022-12-17T08:06:43.709Z,-3.69
2022-12-17T08:09:30.316Z,-3.77
2022-12-17T08:12:16.799Z,-3.71
2022-12-17T08:15:03.061Z,-3.73
2022-12-17T08:17:49.372Z,-3.76
2022-12-17T08:20:36.007Z,-3.71
2022-12-17T08:23:25.492Z,-3.70
2022-12-17T08:26:11.831Z,-3.61
2022-12-17T08:28:58.251Z,-3.52
2022-12-17T08:31:44.755Z,-3.39
2022-12-17T08:34:31.001Z,-3.27
2022-12-17T08:37:17.182Z,-3.11
2022-12-17T08:40:03.488Z,-2.99
2022-12-17T08:42:49.755Z,-2.97
2022-12-17T08:45:36.261Z,-2.95
2022-12-17T08:48:27.088Z,-2.86
2022-12-17T08:51:14.000Z,-2.80
2022-12-17T08:54:00.575Z,-2.77
2022-12-17T08:56:47.034Z,-2.76
2022-12-17T08:59:33.388Z,-2.86
2022-12-17T09:02:19.538Z,-2.87
2022-12-17T09:05:06.017Z,-2.92
2022-12-17T09:07:52.556Z,-2.87
2022-12-17T09:10:38.936Z,-2.87
2022-12-17T09:13:25.477Z,-2.88
2022-12-17T09:19:55.712Z,-2.88
2022-12-17T09:22:41.801Z,-2.91
2022-12-17T09:25:28.266Z,-2.89
2022-12-17T09:28:14.736Z,-2.96
2022-12-17T09:31:01.188Z,-3.03
2022-12-17T09:33:47.456Z,-3.02
2022-12-17T09:36:33.688Z,-2.98
2022-12-17T09:39:20.127Z,-2.91
2022-12-17T09:42:18.223Z,-2.75
2022-12-17T09:45:18.920Z,-2.69
2022-12-17T09:48:39.494Z,-2.56
2022-12-17T09:51:31.215Z,-2.52
2022-12-17T09:54:18.067Z,-2.43
2022-12-17T09:57:04.533Z,-2.35
2022-12-17T09:59:55.413Z,-2.31
2022-12-17T10:02:48.907Z,-2.22
2022-12-17T10:05:48.342Z,-2.16
2022-12-17T10:08:39.385Z,-2.13
2022-12-17T10:11:38.708Z,-2.10
2022-12-17T10:14:40.450Z,-1.95
2022-12-17T10:17:35.192Z,-1.88
2022-12-17T10:20:22.122Z,-1.77
2022-12-17T10:23:09.923Z,-1.72
2022-12-17T10:25:56.201Z,-1.66
2022-12-17T10:28:44.310Z,-1.58
2022-12-17T10:31:42.099Z,-1.55
2022-12-17T10:34:39.606Z,-1.48
2022-12-17T10:37:37.892Z,-1.39
2022-12-17T10:41:09.659Z,-1.38
2022-12-17T10:43:58.794Z,-1.31
2022-12-17T10:46:51.999Z,-1.19
2022-12-17T10:49:41.872Z,-1.19
2022-12-17T10:52:58.208Z,-1.13
2022-12-17T10:55:49.658Z,-1.04
2022-12-17T10:58:42.901Z,-1.00
2022-12-17T11:01:40.113Z,-0.97
2022-12-17T11:04:44.726Z,-0.90
2022-12-17T11:07:54.361Z,-0.80
2022-12-17T11:10:44.113Z,-0.66
2022-12-17T11:13:53.384Z,-0.68
2022-12-17T11:16:54.420Z,-0.67
2022-12-17T11:19:58.184Z,-0.65
2022-12-17T11:22:50.987Z,-0.67
2022-12-17T11:26:07.715Z,-0.77
2022-12-17T11:28:55.718Z,-0.78
2022-12-17T11:31:54.098Z,-0.80
2022-12-17T11:34:55.377Z,-0.80
2022-12-17T11:37:58.140Z,-0.87
2022-12-17T11:40:58.615Z,-0.83
2022-12-17T11:43:48.672Z,-0.83
2022-12-17T11:46:49.453Z,-0.75
2022-12-17T11:49:45.065Z,-0.71
2022-12-17T11:53:00.397Z,-0.69
2022-12-17T11:55:52.618Z,-0.61
2022-12-17T11:58:58.898Z,-0.65
2022-12-17T12:01:54.235Z,-0.65
2022-12-17T12:04:49.589Z,-0.61
2022-12-17T12:08:02.635Z,-0.55
2022-12-17T12:11:03.205Z,-0.56
2022-12-17T12:13:58.245Z,-0.52
2022-12-17T12:17:16.618Z,-0.44
2022-12-17T12:20:33.281Z,-0.37
2022-12-17T12:23:31.255Z,-0.31
2022-12-17T12:26:20.695Z,-0.28
2022-12-17T12:29:26.862Z,-0.23
2022-12-17T12:32:39.979Z,-0.18
2022-12-17T12:35:35.097Z,-0.11
2022-12-17T12:38:22.365Z,-0.07
2022-12-17T12:41:19.345Z,-0.05
2022-12-17T12:44:29.077Z,-0.05
2022-12-17T12:47:27.155Z,-0.02
2022-12-17T12:50:34.610Z,-0.08
2022-12-17T12:53:21.125Z,-0.03
2022-12-17T12:56:07.498Z,0.00
2022-12-17T12:58:54.230Z,0.02
2022-12-17T13:01:52.025Z,-0.02
2022-12-17T13:04:55.551Z,-0.01
2022-12-17T13:07:28.903Z,-0.04
2022-12-17T13:09:59.300Z,-0.06
2022-12-17T13:12:34.301Z,0.02
2022-12-17T13:15:07.855Z,0.04
2022-12-17T13:17:56.404Z,0.06
2022-12-17T13:20:31.712Z,0.04
2022-12-17T13:23:27.395Z,-0.03
2022-12-17T13:26:22.049Z,-0.07
2022-12-17T13:28:51.529Z,-0.04
2022-12-17T13:31:26.232Z,-0.02
2022-12-17T13:34:06.238Z,-0.04
2022-12-17T13:37:08.344Z,-0.01
2022-12-17T13:39:47.431Z,0.07
2022-12-17T13:42:41.593Z,0.16
2022-12-17T13:45:17.386Z,0.22
2022-12-17T13:47:45.219Z,0.26
2022-12-17T13:50:36.688Z,0.21
2022-12-17T13:53:13.179Z,0.19
2022-12-17T13:55:41.326Z,0.16
2022-12-17T13:58:31.612Z,0.11
2022-12-17T14:01:27.441Z,0.03
2022-12-17T14:04:06.368Z,-0.01
2022-12-17T14:06:38.823Z,0.01
2022-12-17T14:09:07.485Z,-0.01
2022-12-17T14:11:57.110Z,-0.01
2022-12-17T14:14:37.381Z,-0.03
2022-12-17T14:17:05.592Z,-0.01
2022-12-17T14:19:34.761Z,-0.03
2022-12-17T14:22:02.620Z,-0.14
2022-12-17T14:24:30.716Z,-0.18
2022-12-17T14:27:00.852Z,-0.25
2022-12-17T14:29:31.692Z,-0.36
2022-12-17T14:32:21.071Z,-0.37
2022-12-17T14:34:48.871Z,-0.37
2022-12-17T14:37:20.918Z,-0.38
2022-12-17T14:39:49.698Z,-0.36
2022-12-17T14:42:30.599Z,-0.36
2022-12-17T14:44:58.297Z,-0.35
2022-12-17T14:47:29.293Z,-0.29
2022-12-17T14:50:00.016Z,-0.27
2022-12-17T14:52:42.639Z,-0.26
2022-12-17T14:55:32.558Z,-0.23
2022-12-17T14:58:15.311Z,-0.21
2022-12-17T15:00:47.191Z,-0.22
2022-12-17T15:03:38.650Z,-0.22
2022-12-17T15:06:08.573Z,-0.26
2022-12-17T15:08:40.943Z,-0.30
2022-12-17T15:11:10.978Z,-0.31
2022-12-17T15:13:38.681Z,-0.34
2022-12-17T15:16:06.951Z,-0.35
2022-12-17T15:18:35.079Z,-0.36
2022-12-17T15:21:03.312Z,-0.36
2022-12-17T15:23:32.420Z,-0.37
2022-12-17T15:26:00.429Z,-0.36
2022-12-17T15:28:28.157Z,-0.41
2022-12-17T15:30:55.972Z,-0.39
2022-12-17T15:33:23.684Z,-0.48
2022-12-17T15:35:51.440Z,-0.55
2022-12-17T15:38:19.130Z,-0.63
2022-12-17T15:40:47.063Z,-0.71
2022-12-17T15:43:15.785Z,-0.80
2022-12-17T15:45:50.350Z,-0.77
2022-12-17T15:48:24.359Z,-0.77
2022-12-17T15:50:52.134Z,-0.79
2022-12-17T15:53:19.905Z,-0.75
2022-12-17T15:55:47.535Z,-0.73
2022-12-17T15:58:15.426Z,-0.65
2022-12-17T16:00:43.190Z,-0.67
2022-12-17T16:03:11.098Z,-0.63
2022-12-17T16:05:38.902Z,-0.60
2022-12-17T16:08:06.735Z,-0.62
2022-12-17T16:10:34.420Z,-0.65
2022-12-17T16:13:02.179Z,-0.65
2022-12-17T16:15:30.112Z,-0.72
2022-12-17T16:17:57.794Z,-0.84
2022-12-17T16:20:25.836Z,-0.85
2022-12-17T16:22:53.535Z,-0.88
2022-12-17T16:25:21.301Z,-0.85
2022-12-17T16:27:48.973Z,-0.82
2022-12-17T16:30:16.835Z,-0.86
2022-12-17T16:32:44.532Z,-0.92
2022-12-17T16:35:12.320Z,-0.96
2022-12-17T16:37:39.984Z,-1.03
2022-12-17T16:40:08.243Z,-1.08
2022-12-17T16:42:35.895Z,-1.11
2022-12-17T16:45:03.549Z,-1.15
2022-12-17T16:47:31.263Z,-1.22
2022-12-17T16:49:58.980Z,-1.21
2022-12-17T16:52:26.708Z,-1.21
2022-12-17T16:54:54.448Z,-1.21
2022-12-17T16:57:22.204Z,-1.30
2022-12-17T16:59:49.955Z,-1.32
2022-12-17T17:02:18.018Z,-1.38
2022-12-17T17:04:46.077Z,-1.42
2022-12-17T17:07:13.768Z,-1.42
2022-12-17T17:09:41.479Z,-1.45
2022-12-17T17:12:10.139Z,-1.47
2022-12-17T17:14:37.889Z,-1.49
2022-12-17T17:17:05.648Z,-1.49
2022-12-17T17:19:33.479Z,-1.48
2022-12-17T17:22:01.203Z,-1.47
2022-12-17T17:24:28.888Z,-1.52
2022-12-17T17:26:56.860Z,-1.49
2022-12-17T17:29:24.838Z,-1.43
2022-12-17T17:32:09.854Z,-1.39
2022-12-17T17:34:39.906Z,-1.37
2022-12-17T17:37:07.741Z,-1.36
2022-12-17T17:39:35.846Z,-1.43
2022-12-17T17:42:03.787Z,-1.44
2022-12-17T17:44:31.478Z,-1.51
2022-12-17T17:46:59.389Z,-1.52
2022-12-17T17:49:27.246Z,-1.52
2022-12-17T17:52:11.330Z,-1.53
2022-12-17T17:54:40.608Z,-1.58
2022-12-17T17:57:08.953Z,-1.61
2022-12-17T17:59:36.726Z,-1.64
2022-12-17T18:02:04.747Z,-1.70
2022-12-17T18:04:33.389Z,-1.66
2022-12-17T18:07:25.334Z,-1.70
2022-12-17T18:09:48.904Z,-1.69
2022-12-17T18:12:35.090Z,-1.67
2022-12-17T18:15:14.265Z,-1.70
2022-12-17T18:17:43.272Z,-1.75
2022-12-17T18:20:11.764Z,-1.79
2022-12-17T18:22:39.431Z,-1.82
2022-12-17T18:25:07.268Z,-1.83
2022-12-17T18:27:34.965Z,-1.80
2022-12-17T18:30:02.637Z,-1.82
2022-12-17T18:32:30.313Z,-1.84
2022-12-17T18:34:58.072Z,-1.80
2022-12-17T18:37:25.835Z,-1.81
2022-12-17T18:39:53.447Z,-1.80
2022-12-17T18:42:39.835Z,-1.76
2022-12-17T18:45:08.228Z,-1.75
2022-12-17T18:47:35.926Z,-1.72
2022-12-17T18:50:03.646Z,-1.75
2022-12-17T18:52:31.381Z,-1.74
2022-12-17T18:54:59.065Z,-1.72
2022-12-17T18:57:26.859Z,-1.70
2022-12-17T18:59:54.523Z,-1.71
2022-12-17T19:02:22.364Z,-1.72
2022-12-17T19:04:50.157Z,-1.71
2022-12-17T19:07:17.832Z,-1.66
2022-12-17T19:09:45.618Z,-1.66
2022-12-17T19:12:13.288Z,-1.62
2022-12-17T19:14:41.118Z,-1.67
2022-12-17T19:17:08.757Z,-1.70
2022-12-17T19:19:36.468Z,-1.67
2022-12-17T19:22:04.578Z,-1.65
2022-12-17T19:24:32.306Z,-1.73
2022-12-17T19:27:00.034Z,-1.72
2022-12-17T19:29:27.918Z,-1.73
2022-12-17T19:31:55.641Z,-1.68
2022-12-17T19:34:23.343Z,-1.75
2022-12-17T19:36:51.361Z,-1.75
2022-12-17T19:39:20.813Z,-1.67
2022-12-17T19:41:48.502Z,-1.73
2022-12-17T19:44:18.494Z,-1.72
2022-12-17T19:46:46.291Z,-1.70
2022-12-17T19:49:16.603Z,-1.68
2022-12-17T19:51:45.219Z,-1.65
2022-12-17T19:54:16.004Z,-1.64
2022-12-17T19:56:45.363Z,-1.74
2022-12-17T19:59:14.230Z,-1.71
2022-12-17T20:01:45.358Z,-1.73
2022-12-17T20:04:14.704Z,-1.79
2022-12-17T20:06:42.813Z,-1.78
2022-12-17T20:09:10.585Z,-1.83
2022-12-17T20:11:38.683Z,-1.80
2022-12-17T20:14:16.950Z,-1.85
2022-12-17T20:16:59.146Z,-1.84
2022-12-17T20:19:32.168Z,-1.85
2022-12-17T20:22:01.709Z,-1.89
2022-12-17T20:24:31.892Z,-1.93
2022-12-17T20:27:00.466Z,-1.98
2022-12-17T20:29:28.456Z,-1.99
2022-12-17T20:31:56.849Z,-2.08
2022-12-17T20:34:26.223Z,-2.11
2022-12-17T20:36:54.855Z,-2.03
2022-12-17T20:39:27.162Z,-1.96
2022-12-17T20:41:56.057Z,-1.88
2022-12-17T20:44:23.877Z,-1.96
2022-12-17T20:46:51.575Z,-1.98
2022-12-17T20:49:19.241Z,-1.97
2022-12-17T20:51:47.075Z,-1.93
2022-12-17T20:54:14.874Z,-1.91
2022-12-17T20:56:42.588Z,-1.95
2022-12-17T20:59:16.357Z,-1.91
2022-12-17T21:01:44.754Z,-1.91
2022-12-17T21:04:14.670Z,-1.93
2022-12-17T21:06:47.257Z,-2.00
2022-12-17T21:09:16.662Z,-2.02
2022-12-17T21:11:44.395Z,-2.01
2022-12-17T21:14:15.403Z,-2.01
2022-12-17T21:16:44.322Z,-2.02
2022-12-17T21:19:18.175Z,-2.02
2022-12-17T21:21:46.147Z,-2.03
2022-12-17T21:24:13.939Z,-2.01
2022-12-17T21:26:43.593Z,-2.07
2022-12-17T21:29:12.245Z,-2.11
2022-12-17T21:31:43.708Z,-2.15
2022-12-17T21:34:15.141Z,-2.11
2022-12-17T21:36:43.770Z,-2.23
2022-12-17T21:39:14.333Z,-2.28
2022-12-17T21:41:44.697Z,-2.28
2022-12-17T21:44:14.627Z,-2.30
2022-12-17T21:46:46.297Z,-2.33
2022-12-17T21:49:17.980Z,-2.44
2022-12-17T21:51:45.812Z,-2.45
2022-12-17T21:54:19.369Z,-2.43
2022-12-17T21:56:47.904Z,-2.50
2022-12-17T21:59:15.623Z,-2.49
2022-12-17T22:01:43.463Z,-2.53
2022-12-17T22:04:11.425Z,-2.59
2022-12-17T22:06:40.236Z,-2.60
2022-12-17T22:09:14.739Z,-2.53
2022-12-17T22:11:47.654Z,-2.47
2022-12-17T22:14:20.820Z,-2.49
2022-12-17T22:16:50.284Z,-2.46
2022-12-17T22:19:22.471Z,-2.52
2022-12-17T22:21:55.799Z,-2.56
2022-12-17T22:24:26.193Z,-2.56
2022-12-17T22:27:01.238Z,-2.57
2022-12-17T22:30:04.695Z,-2.57
2022-12-17T22:32:51.163Z,-2.53
2022-12-17T22:36:52.124Z,-2.44
2022-12-17T22:41:07.759Z,-2.42
2022-12-17T22:44:29.566Z,-2.43
2022-12-17T22:44:46.141Z,-2.43
2022-12-17T22:46:32.699Z,-2.50
2022-12-17T22:49:00.650Z,-2.46
2022-12-17T22:51:31.474Z,-2.48
2022-12-17T22:54:09.277Z,-2.55
2022-12-17T22:57:31.446Z,-2.60
2022-12-17T22:59:26.912Z,-2.66
2022-12-17T23:01:54.772Z,-2.72
2022-12-17T23:04:22.833Z,-2.77
2022-12-17T23:06:50.667Z,-2.79
2022-12-17T23:09:20.316Z,-2.79
2022-12-17T23:11:49.446Z,-2.82
2022-12-17T23:14:18.250Z,-2.84
2022-12-17T23:16:47.881Z,-2.84
2022-12-17T23:19:15.716Z,-2.82
2022-12-17T23:21:43.489Z,-2.78
2022-12-17T23:24:11.151Z,-2.78
2022-12-17T23:26:39.174Z,-2.88
2022-12-17T23:29:13.580Z,-2.85
2022-12-17T23:31:43.907Z,-2.86
2022-12-17T23:34:11.726Z,-2.84
2022-12-17T23:36:39.460Z,-2.85
2022-12-17T23:39:07.672Z,-2.72
2022-12-17T23:41:35.511Z,-2.71
2022-12-17T23:44:03.179Z,-2.71
2022-12-17T23:46:31.838Z,-2.68
2022-12-17T23:48:59.806Z,-2.59
2022-12-17T23:51:27.677Z,-2.57
2022-12-17T23:53:55.411Z,-2.59
2022-12-17T23:56:25.668Z,-2.55
2022-12-17T23:59:02.228Z,-2.52
